Time;durP1;ratioP1;P1;durP2;ratioP2;P2;SDS_P1;SDS_P2;PMS_P1;PMS_P2;Temp;Humidity;BMP_temperature;BMP_pressure;BME280_temperature;BME280_humidity;BME280_pressure;Samples;Min_cycle;Max_cycle;Signal;HPM_P1;HPM_P2
2023/06/09 00:01:38;;;;;;;;;27.25;22.25;;;;;;;;5056364;28;45569;-57
2023/06/09 00:04:03;;;;;;;;;23.50;22.50;;;;;;;;5055548;28;45290;-56
2023/06/09 00:06:33;;;;;;;;;24.25;22.50;;;;;;;;5051559;28;45277;-54
2023/06/09 00:08:58;;;;;;;;;24.00;23.20;;;;;;;;5056546;28;45348;-58
2023/06/09 00:11:24;;;;;;;;;22.25;22.25;;;;;;;;5042707;28;45419;-54
2023/06/09 00:13:49;;;;;;;;;22.50;21.00;;;;;;;;5036470;28;45369;-55
2023/06/09 00:16:15;;;;;;;;;21.00;21.00;;;;;;;;5036482;28;45351;-56
2023/06/09 00:18:41;;;;;;;;;21.25;21.25;;;;;;;;5036481;28;45372;-58
2023/06/09 00:21:06;;;;;;;;;23.40;21.40;;;;;;;;5036227;28;46696;-56
2023/06/09 00:23:32;;;;;;;;;21.75;21.50;;;;;;;;5036765;28;45298;-55
2023/06/09 00:25:57;;;;;;;;;24.75;22.25;;;;;;;;5036144;28;45373;-55
2023/06/09 00:28:22;;;;;;;;;20.75;19.25;;;;;;;;5037041;28;45638;-55
2023/06/09 00:30:48;;;;;;;;;23.25;23.25;;;;;;;;5035965;28;46593;-55
2023/06/09 00:33:13;;;;;;;;;19.75;19.75;;;;;;;;5035539;28;45182;-56
2023/06/09 00:35:38;;;;;;;;;25.00;22.75;;;;;;;;5035039;28;45288;-55
2023/06/09 00:38:04;;;;;;;;;21.75;20.75;;;;;;;;5036054;28;45512;-53
2023/06/09 00:40:29;;;;;;;;;25.50;22.00;;;;;;;;5036210;28;46959;-56
2023/06/09 00:42:55;;;;;;;;;25.00;24.25;;;;;;;;5035296;28;45236;-56
2023/06/09 00:45:20;;;;;;;;;22.75;20.50;;;;;;;;5052797;28;45389;-58
2023/06/09 00:47:45;;;;;;;;;18.50;16.00;;;;;;;;5056623;28;45387;-55
2023/06/09 00:50:12;;;;;;;;;23.50;21.50;;;;;;;;5055961;28;46306;-55
2023/06/09 00:52:37;;;;;;;;;22.00;20.20;;;;;;;;5071229;28;45562;-55
2023/06/09 00:55:03;;;;;;;;;21.50;20.50;;;;;;;;5056036;28;45815;-54
2023/06/09 00:57:29;;;;;;;;;22.50;21.25;;;;;;;;5056025;28;46012;-54
2023/06/09 00:59:56;;;;;;;;;20.60;20.60;;;;;;;;5055534;28;46117;-55
2023/06/09 01:02:21;;;;;;;;;24.00;21.20;;;;;;;;5055981;28;45360;-56
2023/06/09 01:04:49;;;;;;;;;22.50;20.00;;;;;;;;5055650;28;45416;-57
2023/06/09 01:07:16;;;;;;;;;20.60;19.80;;;;;;;;5054566;28;45397;-54
2023/06/09 01:09:44;;;;;;;;;20.40;20.40;;;;;;;;5055352;28;47592;-55
2023/06/09 01:12:09;;;;;;;;;21.80;20.40;;;;;;;;5054998;28;45439;-54
2023/06/09 01:14:45;;;;;;;;;23.75;22.75;;;;;;;;5055928;28;45233;-55
2023/06/09 01:17:12;;;;;;;;;26.40;23.20;;;;;;;;5055738;28;45444;-54
2023/06/09 01:19:47;;;;;;;;;25.00;24.60;;;;;;;;5053575;28;46569;-52
2023/06/09 01:22:19;;;;;;;;;22.20;20.60;;;;;;;;5055126;28;45187;-55
2023/06/09 01:24:53;;;;;;;;;24.40;23.40;;;;;;;;5055474;28;45397;-54
2023/06/09 01:27:18;;;;;;;;;24.00;22.00;;;;;;;;5055662;28;45289;-57
2023/06/09 01:29:44;;;;;;;;;22.50;22.50;;;;;;;;5053868;28;46253;-56
2023/06/09 01:32:09;;;;;;;;;25.75;23.50;;;;;;;;5053481;28;45449;-53
2023/06/09 01:34:35;;;;;;;;;23.00;22.75;;;;;;;;5054086;28;45373;-54
2023/06/09 01:37:00;;;;;;;;;29.00;25.75;;;;;;;;5055447;28;45399;-55
2023/06/09 01:39:26;;;;;;;;;26.50;26.50;;;;;;;;5054990;28;45468;-55
2023/06/09 01:41:52;;;;;;;;;24.40;24.00;;;;;;;;5053110;28;45412;-54
2023/06/09 01:44:17;;;;;;;;;22.75;22.75;;;;;;;;5054296;28;45452;-55
2023/06/09 01:46:42;;;;;;;;;24.00;19.75;;;;;;;;5055185;28;45641;-59
2023/06/09 01:49:11;;;;;;;;;26.00;25.00;;;;;;;;5054929;28;45799;-56
2023/06/09 01:51:42;;;;;;;;;22.60;22.60;;;;;;;;5070301;28;45473;-55
2023/06/09 01:54:09;;;;;;;;;20.00;20.00;;;;;;;;5054403;28;45351;-54
2023/06/09 01:56:37;;;;;;;;;26.80;24.40;;;;;;;;5054621;28;45440;-55
2023/06/09 01:59:04;;;;;;;;;24.00;23.00;;;;;;;;5054167;28;46700;-56
2023/06/09 02:01:31;;;;;;;;;23.60;23.60;;;;;;;;5054517;28;45518;-53
2023/06/09 02:03:56;;;;;;;;;23.00;22.80;;;;;;;;5026094;28;45472;-53
2023/06/09 02:06:22;;;;;;;;;25.25;23.25;;;;;;;;5070757;28;45377;-54
2023/06/09 02:08:47;;;;;;;;;23.00;22.00;;;;;;;;5069828;28;45200;-52
2023/06/09 02:11:13;;;;;;;;;27.25;25.75;;;;;;;;5054586;28;45283;-54
2023/06/09 02:13:38;;;;;;;;;25.25;24.25;;;;;;;;5054827;28;45350;-57
2023/06/09 02:16:03;;;;;;;;;24.00;24.00;;;;;;;;5054793;28;45369;-59
2023/06/09 02:18:29;;;;;;;;;25.50;24.75;;;;;;;;5054231;28;47397;-56
2023/06/09 02:20:54;;;;;;;;;24.00;22.75;;;;;;;;5054505;28;45754;-55
2023/06/09 02:23:20;;;;;;;;;25.25;22.25;;;;;;;;5054300;28;45277;-54
2023/06/09 02:25:45;;;;;;;;;23.25;23.25;;;;;;;;5054512;28;45543;-54
2023/06/09 02:28:11;;;;;;;;;26.50;24.75;;;;;;;;5053968;28;45555;-55
2023/06/09 02:30:36;;;;;;;;;25.00;24.00;;;;;;;;5054488;28;45324;-53
2023/06/09 02:33:01;;;;;;;;;23.50;23.00;;;;;;;;5054087;28;45469;-54
2023/06/09 02:35:27;;;;;;;;;27.25;27.25;;;;;;;;5054533;28;45733;-55
2023/06/09 02:37:53;;;;;;;;;24.80;22.60;;;;;;;;5053984;28;46827;-56
2023/06/09 02:40:18;;;;;;;;;24.75;23.25;;;;;;;;5054245;28;45741;-57
2023/06/09 02:42:44;;;;;;;;;24.00;22.25;;;;;;;;5052968;28;45433;-55
2023/06/09 02:45:09;;;;;;;;;25.00;22.50;;;;;;;;5053966;28;45355;-55
2023/06/09 02:47:35;;;;;;;;;26.25;23.75;;;;;;;;5054259;28;46066;-54
2023/06/09 02:50:00;;;;;;;;;25.25;23.75;;;;;;;;5054373;28;45392;-56
2023/06/09 02:52:28;;;;;;;;;26.25;25.25;;;;;;;;5054160;28;45415;-55
2023/06/09 02:54:56;;;;;;;;;25.00;23.00;;;;;;;;5053147;28;45226;-55
2023/06/09 02:57:22;;;;;;;;;22.00;22.00;;;;;;;;5056075;28;47532;-56
2023/06/09 02:59:47;;;;;;;;;25.25;23.25;;;;;;;;5057881;28;45320;-58
2023/06/09 03:02:13;;;;;;;;;22.75;22.75;;;;;;;;5057468;28;45371;-54
2023/06/09 03:04:40;;;;;;;;;19.50;18.25;;;;;;;;5058103;28;45500;-54
2023/06/09 03:07:05;;;;;;;;;28.40;24.00;;;;;;;;5057396;28;45415;-55
2023/06/09 03:09:31;;;;;;;;;26.00;23.75;;;;;;;;5056053;28;45258;-55
2023/06/09 03:11:56;;;;;;;;;21.75;20.75;;;;;;;;5057954;28;45654;-55
2023/06/09 03:14:23;;;;;;;;;23.50;23.50;;;;;;;;5057670;28;45519;-55
2023/06/09 03:16:48;;;;;;;;;22.60;22.60;;;;;;;;5056977;28;46771;-56
2023/06/09 03:19:13;;;;;;;;;25.00;24.00;;;;;;;;5057282;28;45160;-54
2023/06/09 03:21:39;;;;;;;;;17.75;17.75;;;;;;;;5057764;28;45806;-56
2023/06/09 03:24:04;;;;;;;;;22.75;21.00;;;;;;;;5057691;28;45366;-53
2023/06/09 03:26:30;;;;;;;;;22.25;22.25;;;;;;;;5056992;28;45447;-55
2023/06/09 03:28:55;;;;;;;;;23.00;21.75;;;;;;;;5057386;28;45415;-56
2023/06/09 03:31:20;;;;;;;;;23.25;21.75;;;;;;;;5057245;28;45393;-55
2023/06/09 03:33:46;;;;;;;;;24.75;23.50;;;;;;;;5057348;28;45474;-55
2023/06/09 03:36:11;;;;;;;;;20.50;20.50;;;;;;;;5056058;28;46323;-54
2023/06/09 03:38:36;;;;;;;;;23.75;20.00;;;;;;;;5057051;28;45357;-54
2023/06/09 03:41:02;;;;;;;;;23.50;23.50;;;;;;;;5057174;28;45799;-56
2023/06/09 03:43:28;;;;;;;;;22.50;21.50;;;;;;;;5056755;28;45517;-58
2023/06/09 03:45:54;;;;;;;;;25.80;24.40;;;;;;;;5056409;28;46532;-55
2023/06/09 03:48:19;;;;;;;;;23.50;22.75;;;;;;;;5056548;28;45486;-55
2023/06/09 03:50:44;;;;;;;;;23.50;23.00;;;;;;;;5056633;28;45451;-56
2023/06/09 03:53:09;;;;;;;;;24.00;23.00;;;;;;;;5056902;28;45286;-54
2023/06/09 03:55:38;;;;;;;;;23.00;22.00;;;;;;;;5056444;28;45551;-56
2023/06/09 03:58:03;;;;;;;;;24.80;24.80;;;;;;;;5056796;28;45318;-55
2023/06/09 04:00:28;;;;;;;;;27.00;24.50;;;;;;;;5056609;28;45261;-56
2023/06/09 04:02:53;;;;;;;;;25.75;23.75;;;;;;;;5056811;28;45415;-57
2023/06/09 04:05:20;;;;;;;;;23.50;22.25;;;;;;;;5056674;28;46132;-55
2023/06/09 04:07:45;;;;;;;;;24.00;21.60;;;;;;;;5055461;28;45236;-55
2023/06/09 04:10:10;;;;;;;;;21.00;21.00;;;;;;;;5056667;28;45169;-53
2023/06/09 04:12:35;;;;;;;;;28.50;24.25;;;;;;;;5056586;28;45661;-54
2023/06/09 04:15:01;;;;;;;;;25.50;23.25;;;;;;;;5054908;28;47692;-54
2023/06/09 04:17:26;;;;;;;;;25.75;21.50;;;;;;;;5056409;28;45411;-51
2023/06/09 04:19:54;;;;;;;;;25.00;25.00;;;;;;;;5056137;28;45416;-55
2023/06/09 04:22:19;;;;;;;;;32.60;28.80;;;;;;;;5056276;28;45510;-57
2023/06/09 04:24:45;;;;;;;;;24.75;24.25;;;;;;;;5055791;28;45539;-55
2023/06/09 04:27:13;;;;;;;;;29.75;24.50;;;;;;;;5056248;28;45309;-55
2023/06/09 04:29:40;;;;;;;;;25.20;23.40;;;;;;;;5055967;28;45393;-56
2023/06/09 04:32:07;;;;;;;;;30.00;27.60;;;;;;;;5056115;28;45386;-54
2023/06/09 04:34:38;;;;;;;;;23.40;23.20;;;;;;;;5056111;28;46534;-55
2023/06/09 04:37:04;;;;;;;;;24.80;24.80;;;;;;;;5056201;28;45423;-56
2023/06/09 04:39:29;;;;;;;;;24.50;24.50;;;;;;;;5056138;28;45355;-55
2023/06/09 04:41:55;;;;;;;;;26.50;24.75;;;;;;;;5055998;28;45506;-53
2023/06/09 04:44:21;;;;;;;;;24.00;21.00;;;;;;;;5055831;28;45333;-52
2023/06/09 04:46:47;;;;;;;;;24.60;22.80;;;;;;;;5055734;28;45400;-52
2023/06/09 04:49:12;;;;;;;;;23.75;21.50;;;;;;;;5054731;28;45426;-55
2023/06/09 04:51:41;;;;;;;;;25.00;24.00;;;;;;;;5056361;28;45353;-58
2023/06/09 04:54:08;;;;;;;;;20.20;20.20;;;;;;;;5052506;28;47639;-53
2023/06/09 04:56:36;;;;;;;;;23.80;22.40;;;;;;;;5014298;28;45730;-54
2023/06/09 04:59:02;;;;;;;;;21.60;21.60;;;;;;;;5035503;28;45562;-55
2023/06/09 05:01:27;;;;;;;;;20.20;19.20;;;;;;;;5035853;28;45575;-53
2023/06/09 05:03:52;;;;;;;;;26.75;24.75;;;;;;;;5035428;28;45569;-52
2023/06/09 05:06:18;;;;;;;;;26.75;26.75;;;;;;;;5035667;28;45340;-53
2023/06/09 05:08:44;;;;;;;;;24.00;24.00;;;;;;;;5035686;28;45414;-56
2023/06/09 05:11:10;;;;;;;;;24.20;23.20;;;;;;;;5035653;28;45399;-53
2023/06/09 05:13:35;;;;;;;;;25.50;23.25;;;;;;;;5035296;28;45968;-53
2023/06/09 05:16:00;;;;;;;;;24.50;22.25;;;;;;;;5017383;28;45489;-51
2023/06/09 05:18:26;;;;;;;;;23.50;22.50;;;;;;;;5035060;28;45321;-53
2023/06/09 05:20:51;;;;;;;;;26.50;24.50;;;;;;;;4993978;28;45642;-54
2023/06/09 05:23:17;;;;;;;;;23.25;23.25;;;;;;;;5035037;28;46508;-55
2023/06/09 05:25:42;;;;;;;;;24.00;22.50;;;;;;;;5034056;28;45715;-56
2023/06/09 05:28:08;;;;;;;;;22.00;20.75;;;;;;;;5035078;28;45290;-55
2023/06/09 05:30:33;;;;;;;;;24.75;23.75;;;;;;;;5035540;28;45183;-57
2023/06/09 05:32:58;;;;;;;;;24.75;23.25;;;;;;;;5050131;28;48001;-58
2023/06/09 05:35:23;;;;;;;;;24.50;22.25;;;;;;;;5035034;28;45283;-55
2023/06/09 05:37:49;;;;;;;;;23.75;22.75;;;;;;;;5035273;28;45155;-56
2023/06/09 05:40:15;;;;;;;;;23.00;21.75;;;;;;;;5035015;28;45572;-54
2023/06/09 05:42:40;;;;;;;;;20.50;20.50;;;;;;;;5033523;28;47760;-55
2023/06/09 05:45:05;;;;;;;;;27.25;22.25;;;;;;;;5048491;28;46283;-57
2023/06/09 05:47:31;;;;;;;;;24.50;24.50;;;;;;;;5054788;28;45463;-56
2023/06/09 05:49:56;;;;;;;;;23.25;20.75;;;;;;;;5055280;28;45727;-56
2023/06/09 05:52:22;;;;;;;;;29.25;25.25;;;;;;;;5054862;28;46293;-55
2023/06/09 05:54:47;;;;;;;;;24.25;23.75;;;;;;;;5054602;28;45375;-58
2023/06/09 05:57:13;;;;;;;;;20.25;20.25;;;;;;;;5048974;28;45241;-60
2023/06/09 05:59:39;;;;;;;;;21.00;21.00;;;;;;;;5038583;28;45595;-57
2023/06/09 06:02:04;;;;;;;;;23.40;23.00;;;;;;;;5034280;28;46284;-55
2023/06/09 06:04:30;;;;;;;;;20.25;18.50;;;;;;;;5034276;28;45302;-53
2023/06/09 06:06:55;;;;;;;;;25.75;23.00;;;;;;;;5034938;28;45454;-56
2023/06/09 06:09:21;;;;;;;;;22.75;21.75;;;;;;;;5034704;28;45378;-54
2023/06/09 06:11:46;;;;;;;;;22.50;19.00;;;;;;;;5034372;28;47871;-55
2023/06/09 06:14:11;;;;;;;;;23.50;20.75;;;;;;;;5034409;28;45407;-55
2023/06/09 06:16:37;;;;;;;;;18.25;18.25;;;;;;;;5034469;28;45261;-57
2023/06/09 06:19:02;;;;;;;;;21.00;19.50;;;;;;;;5034730;28;45326;-57
2023/06/09 06:21:27;;;;;;;;;19.75;19.75;;;;;;;;5033972;28;45544;-58
2023/06/09 06:23:52;;;;;;;;;23.00;19.75;;;;;;;;5034267;28;45344;-57
2023/06/09 06:26:18;;;;;;;;;22.50;20.75;;;;;;;;5034375;28;45320;-56
2023/06/09 06:28:43;;;;;;;;;21.50;21.00;;;;;;;;5034282;28;45377;-55
2023/06/09 06:31:08;;;;;;;;;18.75;18.75;;;;;;;;5033995;28;46099;-55
2023/06/09 06:33:34;;;;;;;;;19.00;17.25;;;;;;;;5034026;28;45373;-55
2023/06/09 06:36:00;;;;;;;;;21.25;20.00;;;;;;;;5034368;28;45290;-51
2023/06/09 06:38:25;;;;;;;;;23.00;20.50;;;;;;;;5034328;28;45296;-55
2023/06/09 06:40:51;;;;;;;;;19.50;18.00;;;;;;;;5033719;28;46052;-58
2023/06/09 06:43:16;;;;;;;;;17.75;17.00;;;;;;;;5034167;28;45347;-57
2023/06/09 06:45:41;;;;;;;;;20.25;17.50;;;;;;;;5046261;28;45429;-56
2023/06/09 06:48:07;;;;;;;;;27.75;24.50;;;;;;;;5053398;28;45345;-56
2023/06/09 06:50:35;;;;;;;;;24.00;23.00;;;;;;;;5069889;28;45809;-56
2023/06/09 06:53:00;;;;;;;;;20.20;18.40;;;;;;;;5054686;28;45349;-55
2023/06/09 06:55:26;;;;;;;;;21.75;20.50;;;;;;;;5054351;28;45478;-54
2023/06/09 06:57:52;;;;;;;;;20.25;20.25;;;;;;;;5054514;28;45500;-54
2023/06/09 07:00:17;;;;;;;;;20.75;19.75;;;;;;;;5052842;28;47602;-56
2023/06/09 07:02:48;;;;;;;;;23.25;20.25;;;;;;;;5054257;28;45360;-56
2023/06/09 07:05:15;;;;;;;;;20.40;19.20;;;;;;;;5054128;28;45447;-54
2023/06/09 07:07:40;;;;;;;;;20.40;18.80;;;;;;;;5046418;28;46066;-55
2023/06/09 07:10:07;;;;;;;;;25.50;24.00;;;;;;;;5030529;28;46452;-52
2023/06/09 07:12:33;;;;;;;;;24.20;23.40;;;;;;;;5033235;28;45394;-51
2023/06/09 07:14:58;;;;;;;;;21.00;19.25;;;;;;;;5032222;28;45326;-58
2023/06/09 07:17:23;;;;;;;;;22.75;21.50;;;;;;;;5033986;28;45320;-55
2023/06/09 07:19:48;;;;;;;;;19.50;19.50;;;;;;;;5033301;28;46630;-57
2023/06/09 07:22:14;;;;;;;;;21.25;21.25;;;;;;;;5033495;28;45327;-56
2023/06/09 07:24:39;;;;;;;;;21.75;19.00;;;;;;;;5033990;28;45349;-55
2023/06/09 07:27:05;;;;;;;;;22.25;21.00;;;;;;;;5034134;28;45377;-55
2023/06/09 07:29:30;;;;;;;;;20.75;20.75;;;;;;;;5033677;28;45966;-55
2023/06/09 07:31:56;;;;;;;;;22.75;21.25;;;;;;;;5033651;28;45366;-54
2023/06/09 07:34:26;;;;;;;;;22.00;21.75;;;;;;;;5033716;28;45345;-55
2023/06/09 07:36:52;;;;;;;;;25.80;24.60;;;;;;;;5033931;28;45361;-56
2023/06/09 07:39:17;;;;;;;;;19.75;18.75;;;;;;;;5033608;28;45386;-54
2023/06/09 07:41:42;;;;;;;;;22.00;22.00;;;;;;;;5033324;28;45398;-56
2023/06/09 07:44:08;;;;;;;;;21.25;20.25;;;;;;;;5036299;28;45401;-50
2023/06/09 07:46:33;;;;;;;;;16.50;16.00;;;;;;;;5055244;28;45322;-54
2023/06/09 07:48:59;;;;;;;;;21.25;20.25;;;;;;;;5056850;28;46456;-54
2023/06/09 07:51:26;;;;;;;;;17.25;16.75;;;;;;;;5056862;28;45364;-53
2023/06/09 07:53:51;;;;;;;;;21.60;20.40;;;;;;;;5057349;28;45560;-57
2023/06/09 07:56:17;;;;;;;;;19.75;18.50;;;;;;;;5057044;28;45442;-55
2023/06/09 07:58:42;;;;;;;;;20.75;19.50;;;;;;;;5056685;28;45535;-55
2023/06/09 08:01:07;;;;;;;;;17.75;17.50;;;;;;;;5056508;28;45283;-51
2023/06/09 08:03:34;;;;;;;;;21.50;20.25;;;;;;;;5055600;28;45460;-51
2023/06/09 08:06:00;;;;;;;;;21.80;20.60;;;;;;;;5056963;28;45540;-54
2023/06/09 08:08:25;;;;;;;;;17.50;17.50;;;;;;;;5056383;28;45996;-55
2023/06/09 08:10:52;;;;;;;;;22.00;22.00;;;;;;;;5057046;28;45316;-51
2023/06/09 08:13:17;;;;;;;;;20.20;18.60;;;;;;;;5052787;28;45292;-55
2023/06/09 08:15:44;;;;;;;;;20.50;19.25;;;;;;;;5011068;28;45789;-56
2023/06/09 08:18:09;;;;;;;;;19.00;18.40;;;;;;;;5046814;28;45498;-55
2023/06/09 08:20:34;;;;;;;;;21.50;19.50;;;;;;;;5054312;28;45422;-56
2023/06/09 08:23:00;;;;;;;;;22.00;21.00;;;;;;;;5054943;28;45898;-57
2023/06/09 08:25:25;;;;;;;;;21.75;21.25;;;;;;;;5053087;28;45409;-58
2023/06/09 08:27:50;;;;;;;;;20.00;18.75;;;;;;;;5053379;28;46691;-55
2023/06/09 08:30:15;;;;;;;;;22.00;21.00;;;;;;;;5009671;28;45997;-55
2023/06/09 08:32:41;;;;;;;;;22.75;20.25;;;;;;;;5050654;28;45395;-62
2023/06/09 08:35:07;;;;;;;;;23.00;18.25;;;;;;;;5050187;28;45328;-60
2023/06/09 08:37:32;;;;;;;;;21.25;20.00;;;;;;;;5049875;28;46644;-54
2023/06/09 08:40:00;;;;;;;;;18.75;18.75;;;;;;;;5045858;28;45481;-59
2023/06/09 08:42:25;;;;;;;;;21.20;19.60;;;;;;;;5051828;28;45419;-56
2023/06/09 08:45:04;;;;;;;;;19.50;19.50;;;;;;;;5068327;28;45683;-60
2023/06/09 08:47:31;;;;;;;;;19.20;18.80;;;;;;;;5038370;28;45682;-57
2023/06/09 08:49:57;;;;;;;;;19.40;17.40;;;;;;;;5034705;28;45322;-56
2023/06/09 08:52:26;;;;;;;;;23.20;21.60;;;;;;;;5033767;28;45832;-57
2023/06/09 08:54:52;;;;;;;;;20.00;18.80;;;;;;;;5033504;28;45468;-58
2023/06/09 08:57:17;;;;;;;;;20.40;20.20;;;;;;;;5035364;28;47069;-56
2023/06/09 08:59:44;;;;;;;;;22.00;20.25;;;;;;;;5033915;28;45448;-56
2023/06/09 09:02:10;;;;;;;;;19.40;17.80;;;;;;;;5035886;28;45314;-60
2023/06/09 09:04:38;;;;;;;;;26.00;21.75;;;;;;;;5035874;28;45338;-57
2023/06/09 09:07:03;;;;;;;;;17.40;16.80;;;;;;;;5035456;28;46509;-58
2023/06/09 09:09:29;;;;;;;;;17.25;16.25;;;;;;;;5033923;28;45418;-58
2023/06/09 09:11:57;;;;;;;;;15.25;15.25;;;;;;;;5035690;28;45285;-58
2023/06/09 09:14:22;;;;;;;;;17.60;17.00;;;;;;;;5027276;28;45592;-61
2023/06/09 09:16:47;;;;;;;;;20.00;19.25;;;;;;;;5051587;28;46030;-60
2023/06/09 09:19:13;;;;;;;;;15.50;15.50;;;;;;;;5055439;28;45327;-59
2023/06/09 09:21:38;;;;;;;;;18.00;18.00;;;;;;;;5026904;28;45623;-61
2023/06/09 09:24:06;;;;;;;;;20.00;18.50;;;;;;;;5050069;28;45523;-60
2023/06/09 09:26:31;;;;;;;;;25.40;22.60;;;;;;;;5052362;28;46232;-61
2023/06/09 09:29:00;;;;;;;;;21.50;20.50;;;;;;;;5069342;28;45347;-59
2023/06/09 09:31:36;;;;;;;;;19.60;19.00;;;;;;;;5053838;28;45462;-58
2023/06/09 09:34:01;;;;;;;;;20.20;19.60;;;;;;;;5053991;28;45435;-58
2023/06/09 09:36:27;;;;;;;;;17.75;17.25;;;;;;;;5053182;28;46480;-59
2023/06/09 09:38:54;;;;;;;;;19.25;19.25;;;;;;;;5051934;28;45383;-59
2023/06/09 09:41:19;;;;;;;;;18.80;17.60;;;;;;;;5053995;28;45703;-59
2023/06/09 09:43:45;;;;;;;;;20.00;20.00;;;;;;;;5053588;28;45419;-58
2023/06/09 09:46:10;;;;;;;;;20.75;19.50;;;;;;;;5053401;28;45323;-61
2023/06/09 09:48:39;;;;;;;;;19.50;19.00;;;;;;;;5053036;28;45557;-60
2023/06/09 09:51:04;;;;;;;;;21.40;20.20;;;;;;;;5051918;28;45579;-58
2023/06/09 09:53:30;;;;;;;;;24.75;22.25;;;;;;;;5053858;28;45396;-57
2023/06/09 09:55:56;;;;;;;;;20.00;20.00;;;;;;;;5053384;28;45667;-59
2023/06/09 09:58:29;;;;;;;;;20.00;20.00;;;;;;;;5052217;28;45444;-61
2023/06/09 10:00:55;;;;;;;;;19.60;17.20;;;;;;;;5069016;28;45810;-60
2023/06/09 10:03:20;;;;;;;;;19.20;18.20;;;;;;;;5063520;28;45393;-60
2023/06/09 10:05:46;;;;;;;;;22.25;20.25;;;;;;;;5067682;28;46132;-57
2023/06/09 10:08:14;;;;;;;;;20.80;18.20;;;;;;;;5052927;28;45416;-60
2023/06/09 10:10:39;;;;;;;;;19.60;17.20;;;;;;;;5069178;28;46010;-59
2023/06/09 10:13:04;;;;;;;;;18.00;18.00;;;;;;;;5052832;28;45349;-57
2023/06/09 10:15:31;;;;;;;;;20.75;18.00;;;;;;;;5051332;28;46609;-59
2023/06/09 10:17:56;;;;;;;;;20.00;19.00;;;;;;;;5052910;28;45398;-56
2023/06/09 10:20:21;;;;;;;;;15.75;14.75;;;;;;;;5068556;28;45388;-61
2023/06/09 10:22:47;;;;;;;;;19.50;18.25;;;;;;;;5043952;28;45636;-59
2023/06/09 10:25:12;;;;;;;;;21.25;19.75;;;;;;;;5052979;28;45535;-59
2023/06/09 10:27:38;;;;;;;;;20.00;17.75;;;;;;;;5051363;28;45801;-59
2023/06/09 10:30:03;;;;;;;;;17.50;17.25;;;;;;;;5052496;28;45371;-59
2023/06/09 10:32:29;;;;;;;;;18.25;17.50;;;;;;;;5000363;28;45553;-62
2023/06/09 10:34:54;;;;;;;;;18.60;18.60;;;;;;;;5056924;27;45605;-61
2023/06/09 10:37:29;;;;;;;;;19.50;18.50;;;;;;;;5033693;28;45767;-54
2023/06/09 10:39:56;;;;;;;;;19.20;18.00;;;;;;;;5039738;28;46151;-59
2023/06/09 10:42:25;;;;;;;;;18.20;16.60;;;;;;;;5048025;28;45440;-60
2023/06/09 10:44:56;;;;;;;;;17.40;16.40;;;;;;;;5030547;28;45793;-58
2023/06/09 10:47:41;;;;;;;;;15.00;15.00;;;;;;;;5041869;28;45550;-64
2023/06/09 10:50:07;;;;;;;;;16.40;15.60;;;;;;;;5042448;28;46803;-62
2023/06/09 10:52:35;;;;;;;;;16.50;16.00;;;;;;;;5057253;27;45504;-60
2023/06/09 10:55:24;;;;;;;;;17.80;17.80;;;;;;;;5034177;28;45456;-60
2023/06/09 10:57:50;;;;;;;;;16.60;15.80;;;;;;;;5049142;28;45525;-62
2023/06/09 11:00:15;;;;;;;;;15.75;15.75;;;;;;;;5025794;28;47738;-57
2023/06/09 11:02:50;;;;;;;;;17.00;17.00;;;;;;;;5035509;28;45549;-60
2023/06/09 11:05:16;;;;;;;;;16.60;16.60;;;;;;;;5047409;28;46042;-60
2023/06/09 11:07:43;;;;;;;;;17.40;16.00;;;;;;;;5051389;28;45431;-57
2023/06/09 11:10:08;;;;;;;;;18.40;17.40;;;;;;;;5052008;28;45777;-59
2023/06/09 11:12:37;;;;;;;;;15.00;15.00;;;;;;;;5052173;28;45360;-57
2023/06/09 11:15:03;;;;;;;;;17.60;15.20;;;;;;;;5052053;28;46136;-60
2023/06/09 11:17:36;;;;;;;;;19.60;18.00;;;;;;;;5046756;28;45501;-59
2023/06/09 11:20:05;;;;;;;;;16.00;16.00;;;;;;;;5036342;28;45353;-59
2023/06/09 11:22:31;;;;;;;;;25.40;25.40;;;;;;;;5045690;28;45356;-60
2023/06/09 11:24:56;;;;;;;;;17.00;17.00;;;;;;;;5054599;28;45467;-60
2023/06/09 11:27:22;;;;;;;;;23.75;23.00;;;;;;;;5056503;28;45380;-59
2023/06/09 11:30:05;;;;;;;;;15.25;15.25;;;;;;;;5056536;28;45305;-59
2023/06/09 11:32:43;;;;;;;;;20.40;18.20;;;;;;;;5055997;28;45681;-59
2023/06/09 11:35:08;;;;;;;;;20.00;19.20;;;;;;;;5012678;28;45695;-61
2023/06/09 11:37:33;;;;;;;;;18.75;17.00;;;;;;;;5044103;28;45436;-60
2023/06/09 11:39:59;;;;;;;;;19.25;19.25;;;;;;;;5070374;28;45459;-59
2023/06/09 11:42:24;;;;;;;;;18.00;18.00;;;;;;;;5054188;28;45333;-62
2023/06/09 11:44:50;;;;;;;;;21.50;20.50;;;;;;;;5055723;28;46681;-64
2023/06/09 11:47:25;;;;;;;;;15.75;15.75;;;;;;;;5036536;28;45478;-60
2023/06/09 11:49:59;;;;;;;;;16.00;13.40;;;;;;;;5056039;28;45328;-62
2023/06/09 11:52:25;;;;;;;;;16.80;15.60;;;;;;;;5044356;28;45406;-59
2023/06/09 11:54:50;;;;;;;;;16.25;16.25;;;;;;;;5036013;28;46406;-56
2023/06/09 11:57:16;;;;;;;;;19.00;18.25;;;;;;;;5036797;28;45762;-59
2023/06/09 11:59:41;;;;;;;;;14.00;14.00;;;;;;;;5036478;28;45589;-59
2023/06/09 12:02:07;;;;;;;;;21.00;20.00;;;;;;;;5036737;28;45584;-60
2023/06/09 12:04:33;;;;;;;;;18.00;16.60;;;;;;;;5036476;28;45911;-58
2023/06/09 12:06:58;;;;;;;;;14.50;14.50;;;;;;;;5036390;28;45470;-59
2023/06/09 12:09:24;;;;;;;;;17.25;14.25;;;;;;;;5036597;28;45305;-59
2023/06/09 12:11:51;;;;;;;;;20.00;18.25;;;;;;;;5036459;28;45466;-58
2023/06/09 12:14:17;;;;;;;;;14.40;14.40;;;;;;;;5014424;28;45834;-57
2023/06/09 12:16:42;;;;;;;;;16.75;15.75;;;;;;;;5039330;28;45753;-57
2023/06/09 12:19:09;;;;;;;;;15.50;14.25;;;;;;;;5049251;28;45459;-62
2023/06/09 12:21:34;;;;;;;;;17.40;17.40;;;;;;;;5051947;28;45739;-62
2023/06/09 12:23:59;;;;;;;;;16.75;15.00;;;;;;;;5053344;28;45623;-64
2023/06/09 12:26:25;;;;;;;;;14.50;13.25;;;;;;;;5051733;28;45386;-60
2023/06/09 12:28:54;;;;;;;;;20.00;18.60;;;;;;;;5052865;28;45444;-62
2023/06/09 12:31:19;;;;;;;;;18.80;18.80;;;;;;;;5051744;28;45798;-62
2023/06/09 12:33:45;;;;;;;;;20.00;19.00;;;;;;;;5046628;28;46303;-60
2023/06/09 12:36:10;;;;;;;;;17.50;16.50;;;;;;;;5052991;28;45521;-60
2023/06/09 12:38:37;;;;;;;;;15.25;14.25;;;;;;;;5050845;28;45762;-61
2023/06/09 12:41:12;;;;;;;;;19.20;18.20;;;;;;;;5052284;28;45349;-60
2023/06/09 12:43:50;;;;;;;;;16.00;16.00;;;;;;;;5068887;28;46266;-59
2023/06/09 12:46:35;;;;;;;;;18.60;15.80;;;;;;;;5048660;28;45432;-60
2023/06/09 12:49:01;;;;;;;;;19.80;18.80;;;;;;;;5054956;28;45254;-61
2023/06/09 12:51:26;;;;;;;;;15.40;15.00;;;;;;;;5055454;28;45351;-59
2023/06/09 12:53:52;;;;;;;;;19.00;17.25;;;;;;;;5055208;28;45636;-60
2023/06/09 12:56:17;;;;;;;;;13.50;13.50;;;;;;;;5055195;28;45278;-61
2023/06/09 12:58:43;;;;;;;;;14.75;14.50;;;;;;;;5025689;28;45677;-61
2023/06/09 13:01:08;;;;;;;;;11.00;10.00;;;;;;;;5035265;28;45543;-61
2023/06/09 13:03:33;;;;;;;;;14.25;14.25;;;;;;;;5035085;28;45528;-61
2023/06/09 13:05:59;;;;;;;;;15.75;13.75;;;;;;;;5034781;28;45352;-61
2023/06/09 13:08:24;;;;;;;;;16.00;16.00;;;;;;;;5041360;28;45448;-60
2023/06/09 13:10:49;;;;;;;;;12.25;12.25;;;;;;;;5054048;28;45319;-61
2023/06/09 13:13:15;;;;;;;;;14.75;14.75;;;;;;;;5041951;28;46136;-57
2023/06/09 13:15:40;;;;;;;;;16.25;14.50;;;;;;;;5054649;28;45375;-59
2023/06/09 13:18:09;;;;;;;;;16.50;15.00;;;;;;;;5053330;28;45461;-53
2023/06/09 13:20:34;;;;;;;;;12.00;12.00;;;;;;;;5052978;28;46081;-55
2023/06/09 13:22:59;;;;;;;;;12.25;12.25;;;;;;;;5046944;28;46862;-60
2023/06/09 13:25:25;;;;;;;;;13.50;13.50;;;;;;;;5052966;28;45755;-60
2023/06/09 13:27:50;;;;;;;;;12.50;12.50;;;;;;;;5053069;28;45621;-61
2023/06/09 13:30:15;;;;;;;;;14.25;14.25;;;;;;;;5053237;28;45484;-60
2023/06/09 13:32:41;;;;;;;;;17.25;16.25;;;;;;;;5052769;28;46471;-62
2023/06/09 13:35:06;;;;;;;;;11.25;9.25;;;;;;;;5051391;28;45488;-56
2023/06/09 13:37:31;;;;;;;;;13.00;13.00;;;;;;;;5052566;28;45665;-59
2023/06/09 13:39:57;;;;;;;;;12.50;11.50;;;;;;;;5052250;28;45721;-54
2023/06/09 13:42:22;;;;;;;;;13.50;13.50;;;;;;;;5052243;28;46598;-60
2023/06/09 13:44:48;;;;;;;;;15.00;13.00;;;;;;;;5051596;28;45444;-59
2023/06/09 13:47:13;;;;;;;;;11.75;10.50;;;;;;;;5037709;28;46147;-57
2023/06/09 13:49:38;;;;;;;;;15.25;14.00;;;;;;;;5032571;28;45480;-58
2023/06/09 13:52:04;;;;;;;;;15.25;14.25;;;;;;;;5032765;28;45444;-57
2023/06/09 13:54:29;;;;;;;;;12.00;12.00;;;;;;;;5032129;28;45506;-59
2023/06/09 13:56:54;;;;;;;;;13.75;13.00;;;;;;;;5031207;28;45382;-62
2023/06/09 13:59:19;;;;;;;;;15.50;15.50;;;;;;;;5036223;28;45404;-61
2023/06/09 14:01:46;;;;;;;;;15.00;15.00;;;;;;;;5022708;28;46623;-57
2023/06/09 14:04:11;;;;;;;;;10.40;10.00;;;;;;;;5041034;28;45541;-55
2023/06/09 14:06:37;;;;;;;;;14.75;14.75;;;;;;;;5036484;28;45741;-53
2023/06/09 14:09:03;;;;;;;;;13.00;12.00;;;;;;;;5042606;28;45605;-59
2023/06/09 14:11:28;;;;;;;;;13.00;13.00;;;;;;;;5032787;28;45919;-61